Terminal Aerodrome Forecast
Issued by NWS

Home | Current Version | Previous Version | Text Only | Print | Product List | Glossary On
Versions: 1 2 3 4 5 6 7 8 9 10 11 12 13 14 15 16 17 18 19 20 21 22 23 24 25 26 27 28 29
000
FTUS44 KMAF 260622 AAA
TAFCNM
TAF AMD
KCNM 260622Z 2606/2706 16007KT P6SM SCT025 SCT060
      TEMPO 2606/2610 4SM BR BKN022
     FM261000 15006KT P6SM BKN015
     FM261600 09008KT P6SM OVC025
      TEMPO 2620/2624 3SM TSRA BKN020CB
     FM270000 08015KT P6SM BKN030 BKN250
      TEMPO 2702/2706 TSRA BKN020CB=

USA.gov is the U.S. government's official web portal to all federal, state and local government web resources and services.